sensor_id;sensor_type;location;lat;lon;timestamp;pressure;altitude;pressure_sealevel;temperature;humidity
48530;BME280;34927;37.302;-121.982;2022-12-07T00:00:41;101030.0;;;20.40;37.27
48530;BME280;34927;37.302;-121.982;2022-12-07T00:01:47;101032.0;;;20.37;37.30
48530;BME280;34927;37.302;-121.982;2022-12-07T00:02:52;101032.0;;;20.41;37.23
48530;BME280;34927;37.302;-121.982;2022-12-07T00:04:00;101034.0;;;20.41;37.18
48530;BME280;34927;37.302;-121.982;2022-12-07T00:05:07;101034.0;;;20.39;37.20
48530;BME280;34927;37.302;-121.982;2022-12-07T00:06:13;101035.0;;;20.43;37.12
48530;BME280;34927;37.302;-121.982;2022-12-07T00:07:16;101036.0;;;20.40;37.23
48530;BME280;34927;37.302;-121.982;2022-12-07T00:08:22;101037.0;;;20.45;37.06
48530;BME280;34927;37.302;-121.982;2022-12-07T00:09:26;101036.0;;;20.47;37.03
48530;BME280;34927;37.302;-121.982;2022-12-07T00:10:34;101037.0;;;20.48;37.05
48530;BME280;34927;37.302;-121.982;2022-12-07T00:11:37;101036.0;;;20.46;37.08
48530;BME280;34927;37.302;-121.982;2022-12-07T00:12:41;101037.0;;;20.49;37.05
48530;BME280;34927;37.302;-121.982;2022-12-07T00:13:47;101038.0;;;20.48;37.06
48530;BME280;34927;37.302;-121.982;2022-12-07T00:14:56;101040.0;;;20.44;37.11
48530;BME280;34927;37.302;-121.982;2022-12-07T00:16:03;101040.0;;;20.42;37.16
48530;BME280;34927;37.302;-121.982;2022-12-07T00:17:06;101038.0;;;20.42;37.19
48530;BME280;34927;37.302;-121.982;2022-12-07T00:18:12;101038.0;;;20.43;37.13
48530;BME280;34927;37.302;-121.982;2022-12-07T00:19:16;101040.0;;;20.48;37.03
48530;BME280;34927;37.302;-121.982;2022-12-07T00:20:22;101040.0;;;20.43;37.18
48530;BME280;34927;37.302;-121.982;2022-12-07T00:21:28;101040.0;;;20.44;37.10
48530;BME280;34927;37.302;-121.982;2022-12-07T00:22:31;101038.0;;;20.50;37.04
48530;BME280;34927;37.302;-121.982;2022-12-07T00:23:37;101038.0;;;20.50;36.97
48530;BME280;34927;37.302;-121.982;2022-12-07T00:24:41;101038.0;;;20.46;37.10
48530;BME280;34927;37.302;-121.982;2022-12-07T00:25:47;101042.0;;;20.40;37.22
48530;BME280;34927;37.302;-121.982;2022-12-07T00:26:51;101041.0;;;20.38;37.17
48530;BME280;34927;37.302;-121.982;2022-12-07T00:27:57;101042.0;;;20.43;37.25
48530;BME280;34927;37.302;-121.982;2022-12-07T00:29:04;101044.0;;;20.44;37.28
48530;BME280;34927;37.302;-121.982;2022-12-07T00:30:08;101047.0;;;20.42;37.40
48530;BME280;34927;37.302;-121.982;2022-12-07T00:31:13;101049.0;;;20.37;37.42
48530;BME280;34927;37.302;-121.982;2022-12-07T00:32:17;101050.0;;;20.35;37.51
48530;BME280;34927;37.302;-121.982;2022-12-07T00:33:21;101051.0;;;20.33;37.37
48530;BME280;34927;37.302;-121.982;2022-12-07T00:34:26;101052.0;;;20.37;37.33
48530;BME280;34927;37.302;-121.982;2022-12-07T00:35:31;101054.0;;;20.35;37.49
48530;BME280;34927;37.302;-121.982;2022-12-07T00:36:37;101054.0;;;20.36;37.51
48530;BME280;34927;37.302;-121.982;2022-12-07T00:37:42;101054.0;;;20.35;37.47
48530;BME280;34927;37.302;-121.982;2022-12-07T00:38:48;101054.0;;;20.34;37.42
48530;BME280;34927;37.302;-121.982;2022-12-07T00:39:51;101055.0;;;20.37;37.44
48530;BME280;34927;37.302;-121.982;2022-12-07T00:40:57;101056.0;;;20.38;37.39
48530;BME280;34927;37.302;-121.982;2022-12-07T00:42:01;101058.0;;;20.34;37.39
48530;BME280;34927;37.302;-121.982;2022-12-07T00:43:07;101058.0;;;20.31;37.51
48530;BME280;34927;37.302;-121.982;2022-12-07T00:44:11;101060.0;;;20.35;37.44
48530;BME280;34927;37.302;-121.982;2022-12-07T00:45:17;101060.0;;;20.33;37.48
48530;BME280;34927;37.302;-121.982;2022-12-07T00:46:22;101062.0;;;20.33;37.42
48530;BME280;34927;37.302;-121.982;2022-12-07T00:47:26;101063.0;;;20.38;37.39
48530;BME280;34927;37.302;-121.982;2022-12-07T00:48:32;101062.0;;;20.33;37.38
48530;BME280;34927;37.302;-121.982;2022-12-07T00:49:37;101062.0;;;20.35;37.44
48530;BME280;34927;37.302;-121.982;2022-12-07T00:50:41;101063.0;;;20.29;37.49
48530;BME280;34927;37.302;-121.982;2022-12-07T00:51:48;101063.0;;;20.29;37.52
48530;BME280;34927;37.302;-121.982;2022-12-07T00:52:51;101065.0;;;20.30;37.54
48530;BME280;34927;37.302;-121.982;2022-12-07T00:53:56;101067.0;;;20.25;37.62
48530;BME280;34927;37.302;-121.982;2022-12-07T00:55:02;101067.0;;;20.28;37.53
48530;BME280;34927;37.302;-121.982;2022-12-07T00:56:07;101065.0;;;20.27;37.59
48530;BME280;34927;37.302;-121.982;2022-12-07T00:57:12;101067.0;;;20.26;37.51
48530;BME280;34927;37.302;-121.982;2022-12-07T00:58:16;101067.0;;;20.22;37.56
48530;BME280;34927;37.302;-121.982;2022-12-07T00:59:22;101069.0;;;20.25;37.54
48530;BME280;34927;37.302;-121.982;2022-12-07T01:00:27;101069.0;;;20.20;37.58
48530;BME280;34927;37.302;-121.982;2022-12-07T01:01:32;101070.0;;;20.21;37.60
48530;BME280;34927;37.302;-121.982;2022-12-07T01:02:37;101069.0;;;20.18;37.55
48530;BME280;34927;37.302;-121.982;2022-12-07T01:03:42;101069.0;;;20.21;37.48
48530;BME280;34927;37.302;-121.982;2022-12-07T01:04:46;101070.0;;;20.22;37.47
48530;BME280;34927;37.302;-121.982;2022-12-07T01:05:53;101071.0;;;20.21;37.40
48530;BME280;34927;37.302;-121.982;2022-12-07T01:06:56;101071.0;;;20.23;37.44
48530;BME280;34927;37.302;-121.982;2022-12-07T01:08:02;101071.0;;;20.20;37.49
48530;BME280;34927;37.302;-121.982;2022-12-07T01:09:07;101072.0;;;20.24;37.45
48530;BME280;34927;37.302;-121.982;2022-12-07T01:10:12;101072.0;;;20.17;37.50
48530;BME280;34927;37.302;-121.982;2022-12-07T01:11:18;101071.0;;;20.21;37.44
48530;BME280;34927;37.302;-121.982;2022-12-07T01:12:22;101071.0;;;20.22;37.47
48530;BME280;34927;37.302;-121.982;2022-12-07T01:13:27;101070.0;;;20.21;37.44
48530;BME280;34927;37.302;-121.982;2022-12-07T01:14:32;101070.0;;;20.22;37.38
48530;BME280;34927;37.302;-121.982;2022-12-07T01:15:39;101069.0;;;20.18;37.51
48530;BME280;34927;37.302;-121.982;2022-12-07T01:16:46;101068.0;;;20.18;37.48
48530;BME280;34927;37.302;-121.982;2022-12-07T01:17:52;101068.0;;;20.14;37.49
48530;BME280;34927;37.302;-121.982;2022-12-07T01:18:57;101070.0;;;20.20;37.45
48530;BME280;34927;37.302;-121.982;2022-12-07T01:20:02;101071.0;;;20.13;37.50
48530;BME280;34927;37.302;-121.982;2022-12-07T01:21:14;101071.0;;;20.14;37.52
48530;BME280;34927;37.302;-121.982;2022-12-07T01:22:21;101073.0;;;20.15;37.48
48530;BME280;34927;37.302;-121.982;2022-12-07T01:23:26;101072.0;;;20.17;37.40
48530;BME280;34927;37.302;-121.982;2022-12-07T01:24:32;101075.0;;;20.08;37.58
48530;BME280;34927;37.302;-121.982;2022-12-07T01:25:36;101076.0;;;20.15;37.42
48530;BME280;34927;37.302;-121.982;2022-12-07T01:26:42;101074.0;;;20.17;37.42
48530;BME280;34927;37.302;-121.982;2022-12-07T01:27:46;101075.0;;;20.13;37.52
48530;BME280;34927;37.302;-121.982;2022-12-07T01:28:52;101073.0;;;20.12;37.47
48530;BME280;34927;37.302;-121.982;2022-12-07T01:29:57;101074.0;;;20.08;37.61
48530;BME280;34927;37.302;-121.982;2022-12-07T01:31:03;101075.0;;;20.11;37.51
48530;BME280;34927;37.302;-121.982;2022-12-07T01:32:06;101074.0;;;20.07;37.56
48530;BME280;34927;37.302;-121.982;2022-12-07T01:33:12;101074.0;;;20.16;37.44
48530;BME280;34927;37.302;-121.982;2022-12-07T01:34:16;101076.0;;;20.11;37.53
48530;BME280;34927;37.302;-121.982;2022-12-07T01:35:22;101076.0;;;20.07;37.48
48530;BME280;34927;37.302;-121.982;2022-12-07T01:36:29;101077.0;;;20.12;37.55
48530;BME280;34927;37.302;-121.982;2022-12-07T01:37:35;101075.0;;;20.06;37.80
48530;BME280;34927;37.302;-121.982;2022-12-07T01:38:42;101075.0;;;20.00;38.32
48530;BME280;34927;37.302;-121.982;2022-12-07T01:39:55;101077.0;;;20.21;38.11
48530;BME280;34927;37.302;-121.982;2022-12-07T01:41:02;101078.0;;;20.59;37.50
48530;BME280;34927;37.302;-121.982;2022-12-07T01:42:09;101077.0;;;20.96;36.90
48530;BME280;34927;37.302;-121.982;2022-12-07T01:43:16;101077.0;;;21.30;36.30
48530;BME280;34927;37.302;-121.982;2022-12-07T01:44:23;101079.0;;;21.60;35.73
48530;BME280;34927;37.302;-121.982;2022-12-07T01:45:38;101080.0;;;21.89;35.22
48530;BME280;34927;37.302;-121.982;2022-12-07T01:46:43;101079.0;;;22.15;34.71
48530;BME280;34927;37.302;-121.982;2022-12-07T01:47:49;101078.0;;;22.40;34.38
48530;BME280;34927;37.302;-121.982;2022-12-07T01:48:56;101077.0;;;22.60;34.03
48530;BME280;34927;37.302;-121.982;2022-12-07T01:50:02;101077.0;;;22.78;33.70
48530;BME280;34927;37.302;-121.982;2022-12-07T01:51:09;101077.0;;;22.96;33.39
48530;BME280;34927;37.302;-121.982;2022-12-07T01:52:20;101075.0;;;23.13;33.11
48530;BME280;34927;37.302;-121.982;2022-12-07T01:53:28;101074.0;;;23.30;32.88
48530;BME280;34927;37.302;-121.982;2022-12-07T01:54:32;101075.0;;;23.44;32.66
48530;BME280;34927;37.302;-121.982;2022-12-07T01:55:41;101077.0;;;23.54;32.45
48530;BME280;34927;37.302;-121.982;2022-12-07T01:56:50;101078.0;;;23.69;32.26
48530;BME280;34927;37.302;-121.982;2022-12-07T01:57:57;101078.0;;;23.80;32.13
48530;BME280;34927;37.302;-121.982;2022-12-07T01:59:02;101079.0;;;23.92;31.89
48530;BME280;34927;37.302;-121.982;2022-12-07T02:00:08;101079.0;;;24.03;31.76
48530;BME280;34927;37.302;-121.982;2022-12-07T02:01:12;101080.0;;;24.14;31.65
48530;BME280;34927;37.302;-121.982;2022-12-07T02:02:19;101079.0;;;24.14;31.55
48530;BME280;34927;37.302;-121.982;2022-12-07T02:03:31;101077.0;;;23.91;31.82
48530;BME280;34927;37.302;-121.982;2022-12-07T02:04:36;101076.0;;;23.65;32.35
48530;BME280;34927;37.302;-121.982;2022-12-07T02:05:42;101076.0;;;23.32;32.85
48530;BME280;34927;37.302;-121.982;2022-12-07T02:06:47;101080.0;;;22.97;33.43
48530;BME280;34927;37.302;-121.982;2022-12-07T02:07:54;101083.0;;;22.80;33.69
48530;BME280;34927;37.302;-121.982;2022-12-07T02:09:01;101084.0;;;22.72;33.90
48530;BME280;34927;37.302;-121.982;2022-12-07T02:10:15;101084.0;;;22.87;33.77
48530;BME280;34927;37.302;-121.982;2022-12-07T02:11:23;101085.0;;;23.07;33.47
48530;BME280;34927;37.302;-121.982;2022-12-07T02:12:27;101086.0;;;23.35;33.09
48530;BME280;34927;37.302;-121.982;2022-12-07T02:13:33;101084.0;;;23.54;32.74
48530;BME280;34927;37.302;-121.982;2022-12-07T02:14:37;101087.0;;;23.71;32.40
48530;BME280;34927;37.302;-121.982;2022-12-07T02:15:58;101087.0;;;23.90;32.11
48530;BME280;34927;37.302;-121.982;2022-12-07T02:17:13;101089.0;;;24.17;31.75
48530;BME280;34927;37.302;-121.982;2022-12-07T02:18:28;101091.0;;;24.30;31.53
48530;BME280;34927;37.302;-121.982;2022-12-07T02:21:07;101090.0;;;24.57;31.05
48530;BME280;34927;37.302;-121.982;2022-12-07T02:22:24;101091.0;;;24.72;30.87
48530;BME280;34927;37.302;-121.982;2022-12-07T02:23:40;101095.0;;;24.82;30.72
48530;BME280;34927;37.302;-121.982;2022-12-07T02:24:53;101098.0;;;24.71;30.75
48530;BME280;34927;37.302;-121.982;2022-12-07T02:26:09;101102.0;;;24.44;31.12
48530;BME280;34927;37.302;-121.982;2022-12-07T02:27:35;101105.0;;;24.16;31.76
48530;BME280;34927;37.302;-121.982;2022-12-07T02:28:55;101105.0;;;23.74;32.30
48530;BME280;34927;37.302;-121.982;2022-12-07T02:30:04;101105.0;;;23.55;32.73
48530;BME280;34927;37.302;-121.982;2022-12-07T02:31:10;101104.0;;;23.67;32.65
48530;BME280;34927;37.302;-121.982;2022-12-07T02:32:20;101105.0;;;23.83;32.39
48530;BME280;34927;37.302;-121.982;2022-12-07T02:33:33;101107.0;;;24.05;32.04
48530;BME280;34927;37.302;-121.982;2022-12-07T02:34:47;101111.0;;;24.27;31.72
48530;BME280;34927;37.302;-121.982;2022-12-07T02:35:57;101109.0;;;24.47;31.41
48530;BME280;34927;37.302;-121.982;2022-12-07T02:37:09;101107.0;;;24.46;31.22
48530;BME280;34927;37.302;-121.982;2022-12-07T02:38:21;101111.0;;;24.24;31.53
48530;BME280;34927;37.302;-121.982;2022-12-07T02:39:31;101112.0;;;24.12;31.83
48530;BME280;34927;37.302;-121.982;2022-12-07T02:40:39;101113.0;;;23.73;32.45
48530;BME280;34927;37.302;-121.982;2022-12-07T02:41:49;101115.0;;;23.50;32.71
48530;BME280;34927;37.302;-121.982;2022-12-07T02:43:01;101116.0;;;23.29;33.00
48530;BME280;34927;37.302;-121.982;2022-12-07T02:44:10;101119.0;;;23.10;33.27
48530;BME280;34927;37.302;-121.982;2022-12-07T02:45:20;101126.0;;;22.98;33.50
48530;BME280;34927;37.302;-121.982;2022-12-07T02:46:30;101130.0;;;22.90;33.48
48530;BME280;34927;37.302;-121.982;2022-12-07T02:47:37;101128.0;;;22.69;34.01
48530;BME280;34927;37.302;-121.982;2022-12-07T02:48:43;101129.0;;;22.86;34.09
48530;BME280;34927;37.302;-121.982;2022-12-07T02:49:46;101129.0;;;23.09;33.77
48530;BME280;34927;37.302;-121.982;2022-12-07T02:50:53;101130.0;;;23.38;33.29
48530;BME280;34927;37.302;-121.982;2022-12-07T02:51:56;101127.0;;;23.64;32.86
48530;BME280;34927;37.302;-121.982;2022-12-07T02:53:02;101126.0;;;23.90;32.41
48530;BME280;34927;37.302;-121.982;2022-12-07T02:54:10;101129.0;;;24.12;32.06
48530;BME280;34927;37.302;-121.982;2022-12-07T02:55:19;101131.0;;;24.30;31.74
48530;BME280;34927;37.302;-121.982;2022-12-07T02:56:30;101130.0;;;24.43;31.43
48530;BME280;34927;37.302;-121.982;2022-12-07T02:57:48;101135.0;;;24.19;31.77
48530;BME280;34927;37.302;-121.982;2022-12-07T02:59:06;101135.0;;;23.96;32.18
48530;BME280;34927;37.302;-121.982;2022-12-07T03:00:15;101138.0;;;23.57;32.77
48530;BME280;34927;37.302;-121.982;2022-12-07T03:01:29;101140.0;;;23.44;32.96
48530;BME280;34927;37.302;-121.982;2022-12-07T03:02:46;101142.0;;;23.20;33.29
48530;BME280;34927;37.302;-121.982;2022-12-07T03:04:02;101145.0;;;23.15;33.34
48530;BME280;34927;37.302;-121.982;2022-12-07T03:05:26;101147.0;;;22.93;33.60
48530;BME280;34927;37.302;-121.982;2022-12-07T03:06:42;101144.0;;;22.73;33.82
48530;BME280;34927;37.302;-121.982;2022-12-07T03:07:52;101146.0;;;22.87;34.21
48530;BME280;34927;37.302;-121.982;2022-12-07T03:09:06;101147.0;;;23.12;33.95
48530;BME280;34927;37.302;-121.982;2022-12-07T03:10:24;101147.0;;;23.44;33.49
48530;BME280;34927;37.302;-121.982;2022-12-07T03:11:37;101144.0;;;23.71;33.01
48530;BME280;34927;37.302;-121.982;2022-12-07T03:12:58;101143.0;;;24.02;32.51
48530;BME280;34927;37.302;-121.982;2022-12-07T03:14:15;101147.0;;;24.31;32.08
48530;BME280;34927;37.302;-121.982;2022-12-07T03:15:27;101149.0;;;24.44;31.75
48530;BME280;34927;37.302;-121.982;2022-12-07T03:16:35;101151.0;;;24.24;31.92
48530;BME280;34927;37.302;-121.982;2022-12-07T03:17:43;101148.0;;;24.04;32.26
48530;BME280;34927;37.302;-121.982;2022-12-07T03:18:50;101147.0;;;23.78;32.63
48530;BME280;34927;37.302;-121.982;2022-12-07T03:20:02;101150.0;;;23.64;32.83
48530;BME280;34927;37.302;-121.982;2022-12-07T03:21:11;101153.0;;;23.43;33.21
48530;BME280;34927;37.302;-121.982;2022-12-07T03:22:18;101154.0;;;23.30;33.99
48530;BME280;34927;37.302;-121.982;2022-12-07T03:23:24;101157.0;;;22.97;34.77
48530;BME280;34927;37.302;-121.982;2022-12-07T03:24:37;101158.0;;;22.77;35.16
48530;BME280;34927;37.302;-121.982;2022-12-07T03:25:45;101155.0;;;22.63;35.57
48530;BME280;34927;37.302;-121.982;2022-12-07T03:26:55;101158.0;;;22.88;34.81
48530;BME280;34927;37.302;-121.982;2022-12-07T03:28:04;101161.0;;;23.22;34.43
48530;BME280;34927;37.302;-121.982;2022-12-07T03:29:17;101161.0;;;23.51;33.89
48530;BME280;34927;37.302;-121.982;2022-12-07T03:30:23;101161.0;;;23.86;33.26
48530;BME280;34927;37.302;-121.982;2022-12-07T03:31:30;101161.0;;;24.14;32.84
48530;BME280;34927;37.302;-121.982;2022-12-07T03:32:38;101164.0;;;24.45;32.44
48530;BME280;34927;37.302;-121.982;2022-12-07T03:33:52;101166.0;;;24.65;32.17
48530;BME280;34927;37.302;-121.982;2022-12-07T03:35:02;101166.0;;;24.75;31.99
48530;BME280;34927;37.302;-121.982;2022-12-07T03:36:10;101166.0;;;24.45;32.42
48530;BME280;34927;37.302;-121.982;2022-12-07T03:37:20;101166.0;;;24.36;32.82
48530;BME280;34927;37.302;-121.982;2022-12-07T03:38:32;101161.0;;;24.10;33.24
48530;BME280;34927;37.302;-121.982;2022-12-07T03:39:46;101161.0;;;23.79;33.92
48530;BME280;34927;37.302;-121.982;2022-12-07T03:41:01;101162.0;;;23.69;34.07
48530;BME280;34927;37.302;-121.982;2022-12-07T03:42:08;101165.0;;;23.50;34.60
48530;BME280;34927;37.302;-121.982;2022-12-07T03:43:12;101164.0;;;23.58;34.40
48530;BME280;34927;37.302;-121.982;2022-12-07T03:44:18;101166.0;;;23.34;35.02
48530;BME280;34927;37.302;-121.982;2022-12-07T03:45:26;101166.0;;;23.28;34.93
48530;BME280;34927;37.302;-121.982;2022-12-07T03:46:36;101165.0;;;23.17;34.83
48530;BME280;34927;37.302;-121.982;2022-12-07T03:47:50;101162.0;;;23.40;34.71
48530;BME280;34927;37.302;-121.982;2022-12-07T03:49:02;101159.0;;;23.69;34.34
48530;BME280;34927;37.302;-121.982;2022-12-07T03:50:10;101159.0;;;23.98;33.83
48530;BME280;34927;37.302;-121.982;2022-12-07T03:51:21;101160.0;;;24.29;33.38
48530;BME280;34927;37.302;-121.982;2022-12-07T03:52:31;101159.0;;;24.60;32.92
48530;BME280;34927;37.302;-121.982;2022-12-07T03:53:41;101159.0;;;24.79;32.52
48530;BME280;34927;37.302;-121.982;2022-12-07T03:54:51;101164.0;;;24.62;32.91
48530;BME280;34927;37.302;-121.982;2022-12-07T03:55:57;101162.0;;;24.44;33.23
48530;BME280;34927;37.302;-121.982;2022-12-07T03:57:02;101164.0;;;24.20;33.84
48530;BME280;34927;37.302;-121.982;2022-12-07T03:58:09;101164.0;;;23.97;34.51
48530;BME280;34927;37.302;-121.982;2022-12-07T03:59:17;101165.0;;;23.92;34.35
48530;BME280;34927;37.302;-121.982;2022-12-07T04:00:21;101165.0;;;23.80;34.75
48530;BME280;34927;37.302;-121.982;2022-12-07T04:01:28;101168.0;;;23.55;34.87
48530;BME280;34927;37.302;-121.982;2022-12-07T04:02:33;101169.0;;;23.37;35.43
48530;BME280;34927;37.302;-121.982;2022-12-07T04:03:36;101173.0;;;23.29;35.44
48530;BME280;34927;37.302;-121.982;2022-12-07T04:04:42;101169.0;;;23.36;35.09
48530;BME280;34927;37.302;-121.982;2022-12-07T04:05:46;101171.0;;;23.26;35.34
48530;BME280;34927;37.302;-121.982;2022-12-07T04:06:52;101170.0;;;23.17;34.84
48530;BME280;34927;37.302;-121.982;2022-12-07T04:07:57;101169.0;;;23.33;34.71
48530;BME280;34927;37.302;-121.982;2022-12-07T04:09:01;101171.0;;;23.58;34.31
48530;BME280;34927;37.302;-121.982;2022-12-07T04:10:07;101170.0;;;23.88;33.78
48530;BME280;34927;37.302;-121.982;2022-12-07T04:11:12;101172.0;;;24.15;33.33
48530;BME280;34927;37.302;-121.982;2022-12-07T04:12:16;101175.0;;;24.40;32.85
48530;BME280;34927;37.302;-121.982;2022-12-07T04:13:22;101178.0;;;24.65;32.41
48530;BME280;34927;37.302;-121.982;2022-12-07T04:14:27;101177.0;;;24.66;32.27
48530;BME280;34927;37.302;-121.982;2022-12-07T04:15:31;101180.0;;;24.42;32.62
48530;BME280;34927;37.302;-121.982;2022-12-07T04:16:37;101182.0;;;24.31;33.05
48530;BME280;34927;37.302;-121.982;2022-12-07T04:17:41;101185.0;;;23.96;33.47
48530;BME280;34927;37.302;-121.982;2022-12-07T04:18:46;101184.0;;;23.75;33.80
48530;BME280;34927;37.302;-121.982;2022-12-07T04:19:52;101189.0;;;23.68;34.09
48530;BME280;34927;37.302;-121.982;2022-12-07T04:20:56;101190.0;;;23.57;34.02
48530;BME280;34927;37.302;-121.982;2022-12-07T04:22:03;101192.0;;;23.46;34.16
48530;BME280;34927;37.302;-121.982;2022-12-07T04:23:07;101195.0;;;23.34;34.50
48530;BME280;34927;37.302;-121.982;2022-12-07T04:24:13;101197.0;;;23.26;34.89
48530;BME280;34927;37.302;-121.982;2022-12-07T04:25:17;101199.0;;;23.17;34.64
48530;BME280;34927;37.302;-121.982;2022-12-07T04:26:21;101202.0;;;23.13;34.49
48530;BME280;34927;37.302;-121.982;2022-12-07T04:27:26;101202.0;;;23.22;34.06
48530;BME280;34927;37.302;-121.982;2022-12-07T04:28:32;101204.0;;;23.11;34.53
48530;BME280;34927;37.302;-121.982;2022-12-07T04:29:36;101206.0;;;23.35;34.19
48530;BME280;34927;37.302;-121.982;2022-12-07T04:30:41;101204.0;;;23.63;33.69
48530;BME280;34927;37.302;-121.982;2022-12-07T04:31:46;101206.0;;;23.91;33.15
48530;BME280;34927;37.302;-121.982;2022-12-07T04:32:52;101208.0;;;24.18;32.64
48530;BME280;34927;37.302;-121.982;2022-12-07T04:33:57;101210.0;;;24.36;32.26
48530;BME280;34927;37.302;-121.982;2022-12-07T04:35:02;101212.0;;;24.52;31.88
48530;BME280;34927;37.302;-121.982;2022-12-07T04:36:07;101216.0;;;24.37;32.01
48530;BME280;34927;37.302;-121.982;2022-12-07T04:37:11;101218.0;;;24.21;32.30
48530;BME280;34927;37.302;-121.982;2022-12-07T04:38:16;101219.0;;;24.00;32.62
48530;BME280;34927;37.302;-121.982;2022-12-07T04:39:24;101221.0;;;23.67;33.36
48530;BME280;34927;37.302;-121.982;2022-12-07T04:40:27;101223.0;;;23.47;33.83
48530;BME280;34927;37.302;-121.982;2022-12-07T04:41:32;101223.0;;;23.40;33.80
48530;BME280;34927;37.302;-121.982;2022-12-07T04:42:37;101224.0;;;23.41;33.88
48530;BME280;34927;37.302;-121.982;2022-12-07T04:43:42;101226.0;;;23.49;33.51
48530;BME280;34927;37.302;-121.982;2022-12-07T04:44:47;101226.0;;;23.36;33.82
48530;BME280;34927;37.302;-121.982;2022-12-07T04:45:51;101226.0;;;23.21;34.11
48530;BME280;34927;37.302;-121.982;2022-12-07T04:46:58;101225.0;;;23.10;34.15
48530;BME280;34927;37.302;-121.982;2022-12-07T04:48:01;101225.0;;;23.03;34.36
48530;BME280;34927;37.302;-121.982;2022-12-07T04:49:06;101225.0;;;23.20;34.15
48530;BME280;34927;37.302;-121.982;2022-12-07T04:50:12;101227.0;;;23.45;33.89
48530;BME280;34927;37.302;-121.982;2022-12-07T04:51:21;101226.0;;;23.75;33.50
48530;BME280;34927;37.302;-121.982;2022-12-07T04:52:27;101226.0;;;24.09;33.02
48530;BME280;34927;37.302;-121.982;2022-12-07T04:53:31;101225.0;;;24.32;32.52
48530;BME280;34927;37.302;-121.982;2022-12-07T04:54:37;101227.0;;;24.54;32.09
48530;BME280;34927;37.302;-121.982;2022-12-07T04:55:41;101227.0;;;24.69;31.67
48530;BME280;34927;37.302;-121.982;2022-12-07T04:56:47;101229.0;;;24.53;31.86
48530;BME280;34927;37.302;-121.982;2022-12-07T04:57:52;101228.0;;;24.40;32.10
48530;BME280;34927;37.302;-121.982;2022-12-07T04:58:56;101230.0;;;24.02;32.66
48530;BME280;34927;37.302;-121.982;2022-12-07T05:00:02;101230.0;;;23.84;32.89
48530;BME280;34927;37.302;-121.982;2022-12-07T05:01:06;101231.0;;;23.71;33.10
48530;BME280;34927;37.302;-121.982;2022-12-07T05:02:12;101230.0;;;23.59;33.19
48530;BME280;34927;37.302;-121.982;2022-12-07T05:03:17;101229.0;;;23.43;33.44
48530;BME280;34927;37.302;-121.982;2022-12-07T05:04:21;101229.0;;;23.47;33.38
48530;BME280;34927;37.302;-121.982;2022-12-07T05:05:27;101228.0;;;23.43;33.32
48530;BME280;34927;37.302;-121.982;2022-12-07T05:06:31;101227.0;;;23.30;33.49
48530;BME280;34927;37.302;-121.982;2022-12-07T05:07:37;101226.0;;;23.16;33.79
48530;BME280;34927;37.302;-121.982;2022-12-07T05:08:42;101222.0;;;23.09;34.09
48530;BME280;34927;37.302;-121.982;2022-12-07T05:09:46;101222.0;;;23.27;34.22
48530;BME280;34927;37.302;-121.982;2022-12-07T05:10:52;101221.0;;;23.50;34.01
48530;BME280;34927;37.302;-121.982;2022-12-07T05:11:57;101218.0;;;23.81;33.54
48530;BME280;34927;37.302;-121.982;2022-12-07T05:13:02;101219.0;;;24.07;33.14
48530;BME280;34927;37.302;-121.982;2022-12-07T05:14:10;101220.0;;;24.36;32.74
48530;BME280;34927;37.302;-121.982;2022-12-07T05:15:17;101222.0;;;24.40;32.49
48530;BME280;34927;37.302;-121.982;2022-12-07T05:16:21;101225.0;;;24.28;32.69
48530;BME280;34927;37.302;-121.982;2022-12-07T05:17:26;101226.0;;;24.15;32.77
48530;BME280;34927;37.302;-121.982;2022-12-07T05:18:31;101231.0;;;23.91;33.20
48530;BME280;34927;37.302;-121.982;2022-12-07T05:19:36;101230.0;;;23.68;33.47
48530;BME280;34927;37.302;-121.982;2022-12-07T05:20:43;101232.0;;;23.52;33.69
48530;BME280;34927;37.302;-121.982;2022-12-07T05:21:47;101233.0;;;23.35;33.95
48530;BME280;34927;37.302;-121.982;2022-12-07T05:22:51;101233.0;;;23.32;33.93
48530;BME280;34927;37.302;-121.982;2022-12-07T05:23:56;101237.0;;;23.22;34.08
48530;BME280;34927;37.302;-121.982;2022-12-07T05:25:02;101236.0;;;23.20;34.07
48530;BME280;34927;37.302;-121.982;2022-12-07T05:26:06;101237.0;;;23.17;34.16
48530;BME280;34927;37.302;-121.982;2022-12-07T05:27:12;101239.0;;;23.08;34.32
48530;BME280;34927;37.302;-121.982;2022-12-07T05:28:16;101242.0;;;22.92;34.82
48530;BME280;34927;37.302;-121.982;2022-12-07T05:29:22;101245.0;;;22.99;35.31
48530;BME280;34927;37.302;-121.982;2022-12-07T05:30:27;101244.0;;;23.26;35.18
48530;BME280;34927;37.302;-121.982;2022-12-07T05:31:31;101245.0;;;23.51;34.69
48530;BME280;34927;37.302;-121.982;2022-12-07T05:32:36;101241.0;;;23.82;34.24
48530;BME280;34927;37.302;-121.982;2022-12-07T05:33:42;101239.0;;;24.15;33.70
48530;BME280;34927;37.302;-121.982;2022-12-07T05:34:47;101238.0;;;24.42;33.24
48530;BME280;34927;37.302;-121.982;2022-12-07T05:35:51;101235.0;;;24.44;33.04
48530;BME280;34927;37.302;-121.982;2022-12-07T05:36:56;101239.0;;;24.27;33.30
48530;BME280;34927;37.302;-121.982;2022-12-07T05:38:01;101242.0;;;24.00;33.89
48530;BME280;34927;37.302;-121.982;2022-12-07T05:39:07;101241.0;;;23.83;34.15
48530;BME280;34927;37.302;-121.982;2022-12-07T05:40:13;101245.0;;;23.63;34.37
48530;BME280;34927;37.302;-121.982;2022-12-07T05:41:18;101246.0;;;23.43;34.74
48530;BME280;34927;37.302;-121.982;2022-12-07T05:42:22;101246.0;;;23.33;34.94
48530;BME280;34927;37.302;-121.982;2022-12-07T05:43:27;101246.0;;;23.15;35.19